createdAt,value
2023-01-17T00:02:09.196Z,10.20
2023-01-17T00:05:09.828Z,8.00
2023-01-17T00:07:57.554Z,9.02
2023-01-17T00:10:28.066Z,10.48
2023-01-17T00:12:58.546Z,7.82
2023-01-17T00:15:28.542Z,11.20
2023-01-17T00:17:57.714Z,9.95
2023-01-17T00:20:45.288Z,12.30
2023-01-17T00:23:34.136Z,7.82
2023-01-17T00:26:05.424Z,6.90
2023-01-17T00:28:34.551Z,9.52
2023-01-17T00:31:02.257Z,9.95
2023-01-17T00:33:29.923Z,9.63
2023-01-17T00:35:59.162Z,6.07
2023-01-17T00:38:30.205Z,10.02
2023-01-17T00:41:05.913Z,12.65
2023-01-17T00:43:51.770Z,10.35
2023-01-17T00:46:37.665Z,9.90
2023-01-17T00:49:23.524Z,8.48
2023-01-17T00:52:09.517Z,11.80
2023-01-17T00:54:56.247Z,9.35
2023-01-17T00:57:42.262Z,12.98
2023-01-17T01:00:29.197Z,8.35
2023-01-17T01:03:15.274Z,7.75
2023-01-17T01:06:01.225Z,10.02
2023-01-17T01:08:48.566Z,7.20
2023-01-17T01:11:37.828Z,10.35
2023-01-17T01:14:25.078Z,8.95
2023-01-17T01:17:10.998Z,8.93
2023-01-17T01:19:56.631Z,9.98
2023-01-17T01:22:42.408Z,7.97
2023-01-17T01:25:28.486Z,11.25
2023-01-17T01:28:23.702Z,7.88
2023-01-17T01:31:09.683Z,8.38
2023-01-17T01:33:37.943Z,8.00
2023-01-17T01:36:08.686Z,8.40
2023-01-17T01:38:37.479Z,6.60
2023-01-17T01:41:06.223Z,9.25
2023-01-17T01:43:45.235Z,10.00
2023-01-17T01:46:17.133Z,5.80
2023-01-17T01:48:51.073Z,9.05
2023-01-17T01:51:23.585Z,8.65
2023-01-17T01:53:55.710Z,8.45
2023-01-17T01:56:25.090Z,7.18
2023-01-17T01:58:55.537Z,8.50
2023-01-17T02:01:24.013Z,8.90
2023-01-17T02:03:52.426Z,7.10
2023-01-17T02:06:31.498Z,11.48
2023-01-17T02:09:04.371Z,7.22
2023-01-17T02:11:33.740Z,9.23
2023-01-17T02:14:03.568Z,7.50
2023-01-17T02:16:47.845Z,6.32
2023-01-17T02:19:43.855Z,7.65
2023-01-17T02:22:47.172Z,6.18
2023-01-17T02:25:43.403Z,7.20
2023-01-17T02:28:28.927Z,6.60
2023-01-17T02:31:04.071Z,5.13
2023-01-17T02:33:38.405Z,7.72
2023-01-17T02:36:15.743Z,5.00
2023-01-17T02:38:52.737Z,5.63
2023-01-17T02:41:25.254Z,5.80
2023-01-17T02:43:54.958Z,4.25
2023-01-17T02:46:24.621Z,5.30
2023-01-17T02:48:53.173Z,4.03
2023-01-17T02:51:54.790Z,6.28
2023-01-17T02:54:49.216Z,5.43
2023-01-17T02:57:36.642Z,5.10
2023-01-17T03:00:09.411Z,5.88
2023-01-17T03:02:48.342Z,4.60
2023-01-17T03:05:24.272Z,5.30
2023-01-17T03:07:53.885Z,5.15
2023-01-17T03:10:23.135Z,5.60
2023-01-17T03:12:53.242Z,4.05
2023-01-17T03:15:21.522Z,5.38
2023-01-17T03:17:57.376Z,3.50
2023-01-17T03:20:25.555Z,3.78
2023-01-17T03:22:53.794Z,2.97
2023-01-17T03:25:21.880Z,3.97
2023-01-17T03:27:50.128Z,3.92
2023-01-17T03:30:20.480Z,4.35
2023-01-17T03:32:48.468Z,4.05
2023-01-17T03:35:18.788Z,3.42
2023-01-17T03:37:46.825Z,4.80
2023-01-17T03:40:15.477Z,2.90
2023-01-17T03:42:43.966Z,2.42
2023-01-17T03:45:30.269Z,2.55
2023-01-17T03:47:58.595Z,3.20
2023-01-17T03:50:27.994Z,3.70
2023-01-17T03:52:56.605Z,2.00
2023-01-17T03:55:25.110Z,2.20
2023-01-17T03:57:53.528Z,4.45
2023-01-17T04:00:22.592Z,2.80
2023-01-17T04:02:50.863Z,2.60
2023-01-17T04:05:19.288Z,3.45
2023-01-17T04:07:48.798Z,2.20
2023-01-17T04:10:17.358Z,2.20
2023-01-17T04:12:46.006Z,4.00
2023-01-17T04:15:14.164Z,2.15
2023-01-17T04:17:43.081Z,3.55
2023-01-17T04:20:18.471Z,2.78
2023-01-17T04:22:48.194Z,2.85
2023-01-17T04:25:16.443Z,2.45
2023-01-17T04:27:44.655Z,3.28
2023-01-17T04:30:13.731Z,4.82
2023-01-17T04:32:42.004Z,2.55
2023-01-17T04:35:10.981Z,2.72
2023-01-17T04:37:39.306Z,2.17
2023-01-17T04:40:10.447Z,2.15
2023-01-17T04:42:38.901Z,2.05
2023-01-17T04:45:08.922Z,2.53
2023-01-17T04:47:37.545Z,2.70
2023-01-17T04:50:06.187Z,3.72
2023-01-17T04:52:34.543Z,3.58
2023-01-17T04:55:02.728Z,4.90
2023-01-17T04:57:32.587Z,2.70
2023-01-17T05:00:01.052Z,4.57
2023-01-17T05:02:29.746Z,3.20
2023-01-17T05:04:58.043Z,2.08
2023-01-17T05:07:26.181Z,2.35
2023-01-17T05:09:54.235Z,2.38
2023-01-17T05:12:22.546Z,2.10
2023-01-17T05:14:52.212Z,3.70
2023-01-17T05:17:21.309Z,3.50
2023-01-17T05:19:49.924Z,2.95
2023-01-17T05:22:18.740Z,1.58
2023-01-17T05:24:48.527Z,3.30
2023-01-17T05:27:17.393Z,3.08
2023-01-17T05:29:45.456Z,4.82
2023-01-17T05:32:15.054Z,2.85
2023-01-17T05:34:43.483Z,2.38
2023-01-17T05:37:11.921Z,2.60
2023-01-17T05:39:40.371Z,2.92
2023-01-17T05:42:08.545Z,3.28
2023-01-17T05:44:36.792Z,2.22
2023-01-17T05:47:04.778Z,3.22
2023-01-17T05:49:34.869Z,1.88
2023-01-17T05:52:06.303Z,1.80
2023-01-17T05:54:34.588Z,2.00
2023-01-17T05:57:02.832Z,3.55
2023-01-17T05:59:37.059Z,2.10
2023-01-17T06:02:05.881Z,1.83
2023-01-17T06:04:35.850Z,2.10
2023-01-17T06:07:04.319Z,1.75
2023-01-17T06:09:32.675Z,1.70
2023-01-17T06:12:01.622Z,2.05
2023-01-17T06:14:30.142Z,4.30
2023-01-17T06:16:58.973Z,2.10
2023-01-17T06:19:27.258Z,2.55
2023-01-17T06:21:57.217Z,4.10
2023-01-17T06:24:25.538Z,2.85
2023-01-17T06:26:53.603Z,3.70
2023-01-17T06:29:21.871Z,2.13
2023-01-17T06:31:50.768Z,2.63
2023-01-17T06:34:19.211Z,2.95
2023-01-17T06:36:47.889Z,2.03
2023-01-17T06:39:17.749Z,2.05
2023-01-17T06:41:45.968Z,2.20
2023-01-17T06:44:14.392Z,2.00
2023-01-17T06:46:43.434Z,2.70
2023-01-17T06:49:11.728Z,2.53
2023-01-17T06:51:41.748Z,2.47
2023-01-17T06:54:11.612Z,4.45
2023-01-17T06:56:41.818Z,2.00
2023-01-17T06:59:10.981Z,4.32
2023-01-17T07:01:39.999Z,2.20
2023-01-17T07:04:08.937Z,2.15
2023-01-17T07:06:37.797Z,3.65
2023-01-17T07:09:06.638Z,2.67
2023-01-17T07:11:35.133Z,3.53
2023-01-17T07:14:05.709Z,4.43
2023-01-17T07:16:35.546Z,2.60
2023-01-17T07:19:04.275Z,3.40
2023-01-17T07:21:32.670Z,4.57
2023-01-17T07:24:00.990Z,4.60
2023-01-17T07:26:29.624Z,1.92
2023-01-17T07:28:58.233Z,3.30
2023-01-17T07:31:28.060Z,6.70
2023-01-17T07:33:56.393Z,3.58
2023-01-17T07:36:24.687Z,2.95
2023-01-17T07:38:53.301Z,2.53
2023-01-17T07:41:21.744Z,3.55
2023-01-17T07:43:50.313Z,2.97
2023-01-17T07:46:19.300Z,3.20
2023-01-17T07:48:49.666Z,2.40
2023-01-17T07:51:18.500Z,3.60
2023-01-17T07:53:47.410Z,2.45
2023-01-17T07:56:15.947Z,2.15
2023-01-17T07:58:44.320Z,3.13
2023-01-17T08:01:14.261Z,2.72
2023-01-17T08:04:10.607Z,2.97
2023-01-17T08:06:44.514Z,4.35
2023-01-17T08:15:09.363Z,2.65
2023-01-17T08:17:38.148Z,3.50
2023-01-17T08:20:08.775Z,2.67
2023-01-17T08:22:37.475Z,5.85
2023-01-17T08:25:06.626Z,4.20
2023-01-17T08:27:36.249Z,4.65
2023-01-17T08:30:05.686Z,3.42
2023-01-17T08:32:34.759Z,4.80
2023-01-17T08:35:03.349Z,3.40
2023-01-17T08:37:33.618Z,2.63
2023-01-17T08:40:02.249Z,2.80
2023-01-17T08:42:30.769Z,3.58
2023-01-17T08:44:59.515Z,4.35
2023-01-17T08:47:28.100Z,3.65
2023-01-17T08:49:56.370Z,3.10
2023-01-17T08:52:26.826Z,4.28
2023-01-17T08:54:57.261Z,3.20
2023-01-17T08:57:26.321Z,4.30
2023-01-17T08:59:54.603Z,2.60
2023-01-17T09:02:24.368Z,2.83
2023-01-17T09:04:53.826Z,4.80
2023-01-17T09:07:24.487Z,4.85
2023-01-17T09:09:52.839Z,4.63
2023-01-17T09:12:23.514Z,5.28
2023-01-17T09:14:51.740Z,3.63
2023-01-17T09:17:20.557Z,2.80
2023-01-17T09:19:49.452Z,3.45
2023-01-17T09:22:18.664Z,4.20
2023-01-17T09:24:47.764Z,3.63
2023-01-17T09:27:16.920Z,2.97
2023-01-17T09:29:47.047Z,4.68
2023-01-17T09:32:17.604Z,4.97
2023-01-17T09:34:47.758Z,4.20
2023-01-17T09:37:16.583Z,4.38
2023-01-17T09:39:44.744Z,2.75
2023-01-17T09:42:22.133Z,4.10
2023-01-17T09:44:53.809Z,3.22
2023-01-17T09:47:34.315Z,2.83
2023-01-17T09:50:19.497Z,2.83
2023-01-17T09:52:48.484Z,2.70
2023-01-17T09:55:18.932Z,3.90
2023-01-17T09:57:58.012Z,3.38
2023-01-17T10:00:44.259Z,7.38
2023-01-17T10:03:42.684Z,10.38
2023-01-17T10:06:30.866Z,3.50
2023-01-17T10:09:25.350Z,2.65
2023-01-17T10:12:08.935Z,3.03
2023-01-17T10:14:53.958Z,2.42
2023-01-17T10:17:36.540Z,2.58
2023-01-17T10:20:16.028Z,4.70
2023-01-17T10:23:01.685Z,2.92
2023-01-17T10:25:42.977Z,2.80
2023-01-17T10:28:17.804Z,3.83
2023-01-17T10:30:50.271Z,2.83
2023-01-17T10:33:23.358Z,3.25
2023-01-17T10:35:57.112Z,2.17
2023-01-17T10:38:32.197Z,2.55
2023-01-17T10:41:08.379Z,2.92
2023-01-17T10:43:45.471Z,2.75
2023-01-17T10:46:20.235Z,4.22
2023-01-17T10:48:53.767Z,2.80
2023-01-17T10:51:49.934Z,3.47
2023-01-17T10:54:38.795Z,2.90
2023-01-17T10:57:15.231Z,3.60
2023-01-17T10:59:44.260Z,2.08
2023-01-17T11:02:21.488Z,2.35
2023-01-17T11:04:54.693Z,3.17
2023-01-17T11:07:25.936Z,3.22
2023-01-17T11:09:56.437Z,6.03
2023-01-17T11:12:30.503Z,4.22
2023-01-17T11:15:06.722Z,4.18
2023-01-17T11:17:37.519Z,3.30
2023-01-17T11:20:20.348Z,1.98
2023-01-17T11:23:04.368Z,4.18
2023-01-17T11:25:35.119Z,1.63
2023-01-17T11:28:06.870Z,3.63
2023-01-17T11:30:36.015Z,2.33
2023-01-17T11:33:08.981Z,3.20
2023-01-17T11:35:45.401Z,2.75
2023-01-17T11:38:19.936Z,3.35
2023-01-17T11:40:50.042Z,2.10
2023-01-17T11:43:22.090Z,3.72
2023-01-17T11:46:03.465Z,3.38
2023-01-17T11:48:40.437Z,3.15
2023-01-17T11:51:21.915Z,2.65
2023-01-17T11:53:50.492Z,2.95
2023-01-17T11:56:23.726Z,2.85
2023-01-17T11:58:53.137Z,2.58
2023-01-17T12:01:38.254Z,2.20
2023-01-17T12:04:25.707Z,2.92
2023-01-17T12:07:11.359Z,2.45
2023-01-17T12:09:47.671Z,2.60
2023-01-17T12:12:44.462Z,1.60
2023-01-17T12:15:31.808Z,8.45
2023-01-17T12:18:22.240Z,1.90
2023-01-17T12:21:10.994Z,2.42
2023-01-17T12:23:59.099Z,3.92
2023-01-17T12:26:36.410Z,3.90
2023-01-17T12:29:31.439Z,2.95
2023-01-17T12:32:11.548Z,4.75
2023-01-17T12:34:47.230Z,2.42
2023-01-17T12:37:23.033Z,4.25
2023-01-17T12:39:59.806Z,3.40
2023-01-17T12:42:33.003Z,2.53
2023-01-17T12:45:07.527Z,4.25
2023-01-17T12:47:41.782Z,2.20
2023-01-17T12:50:22.714Z,2.65
2023-01-17T12:53:00.009Z,6.00
2023-01-17T12:55:37.558Z,3.13
2023-01-17T12:58:12.575Z,3.53
2023-01-17T13:00:40.999Z,5.20
2023-01-17T13:03:20.442Z,2.90
2023-01-17T13:05:48.945Z,7.13
2023-01-17T13:08:25.200Z,2.42
2023-01-17T13:10:58.485Z,4.05
2023-01-17T13:13:28.609Z,2.70
2023-01-17T13:16:02.146Z,2.22
2023-01-17T13:18:33.353Z,3.90
2023-01-17T13:21:15.891Z,3.08
2023-01-17T13:24:06.174Z,4.15
2023-01-17T13:26:49.977Z,2.95
2023-01-17T13:29:28.248Z,3.13
2023-01-17T13:32:07.230Z,4.05
2023-01-17T13:34:50.090Z,2.50
2023-01-17T13:37:50.761Z,3.10
2023-01-17T13:40:44.256Z,3.88
2023-01-17T13:43:19.978Z,4.15
2023-01-17T13:45:54.650Z,6.22
2023-01-17T13:48:28.660Z,3.60
2023-01-17T13:50:58.497Z,2.60
2023-01-17T13:53:48.424Z,3.72
2023-01-17T13:56:31.331Z,4.68
2023-01-17T13:59:28.585Z,3.17
2023-01-17T14:01:57.886Z,7.53
2023-01-17T14:05:04.984Z,2.78
2023-01-17T14:07:36.037Z,3.15
2023-01-17T14:10:25.485Z,2.38
2023-01-17T14:12:53.823Z,3.13
2023-01-17T14:15:25.663Z,3.67
2023-01-17T14:18:00.136Z,7.05
2023-01-17T14:21:05.072Z,7.40
2023-01-17T14:23:50.259Z,6.25
2023-01-17T14:26:33.478Z,3.40
2023-01-17T14:29:35.879Z,2.00
2023-01-17T14:32:11.172Z,2.67
2023-01-17T14:34:39.767Z,2.85
2023-01-17T14:37:18.542Z,4.03
2023-01-17T14:39:48.916Z,5.95
2023-01-17T14:42:20.268Z,7.88
2023-01-17T14:44:50.894Z,4.60
2023-01-17T14:47:22.882Z,2.78
2023-01-17T14:50:11.217Z,2.50
2023-01-17T14:52:40.097Z,2.58
2023-01-17T14:55:18.021Z,3.65
2023-01-17T14:57:56.398Z,5.68
2023-01-17T15:00:29.355Z,4.55
2023-01-17T15:03:02.357Z,7.60
2023-01-17T15:05:31.527Z,5.50
2023-01-17T15:08:00.682Z,3.97
2023-01-17T15:10:33.567Z,6.85
2023-01-17T15:13:10.261Z,9.70
2023-01-17T15:15:42.063Z,3.55
2023-01-17T15:18:20.117Z,4.18
2023-01-17T15:21:08.577Z,4.72
2023-01-17T15:23:41.630Z,3.90
2023-01-17T15:26:16.357Z,5.20
2023-01-17T15:28:46.102Z,7.35
2023-01-17T15:31:17.004Z,14.52
2023-01-17T15:33:49.470Z,5.75
2023-01-17T15:36:27.834Z,5.75
2023-01-17T15:38:59.745Z,7.55
2023-01-17T15:41:32.428Z,5.28
2023-01-17T15:44:01.253Z,6.93
2023-01-17T15:46:34.497Z,7.15
2023-01-17T15:49:24.524Z,5.82
2023-01-17T15:51:55.327Z,5.53
2023-01-17T15:54:26.338Z,4.00
2023-01-17T15:57:06.707Z,3.55
2023-01-17T15:59:45.543Z,6.53
2023-01-17T16:02:37.883Z,3.42
2023-01-17T16:05:42.054Z,3.72
2023-01-17T16:08:31.960Z,8.18
2023-01-17T16:11:03.487Z,4.47
2023-01-17T16:13:33.517Z,5.97
2023-01-17T16:16:18.607Z,6.68
2023-01-17T16:18:48.222Z,3.25
2023-01-17T16:21:26.893Z,6.60
2023-01-17T16:23:56.223Z,4.40
2023-01-17T16:26:25.341Z,5.40
2023-01-17T16:28:53.976Z,4.00
2023-01-17T16:31:23.169Z,5.13
2023-01-17T16:33:52.108Z,6.38
2023-01-17T16:36:23.205Z,14.32
2023-01-17T16:38:53.582Z,10.32
2023-01-17T16:41:22.204Z,8.93
2023-01-17T16:44:02.060Z,6.22
2023-01-17T16:46:31.035Z,6.43
2023-01-17T16:49:01.426Z,4.80
2023-01-17T16:51:29.810Z,13.07
2023-01-17T16:53:59.670Z,9.57
2023-01-17T16:56:27.985Z,11.57
2023-01-17T16:58:56.867Z,15.73
2023-01-17T17:01:25.733Z,16.77
2023-01-17T17:03:54.646Z,56.42
2023-01-17T17:06:23.347Z,96.93
2023-01-17T17:08:51.563Z,28.08
2023-01-17T17:11:23.932Z,8.00
2023-01-17T17:13:53.208Z,5.85
2023-01-17T17:16:26.642Z,8.60
2023-01-17T17:18:57.463Z,19.63
2023-01-17T17:21:26.617Z,8.45
2023-01-17T17:23:58.168Z,8.18
2023-01-17T17:26:31.409Z,13.05
2023-01-17T17:28:59.851Z,10.77
2023-01-17T17:31:28.704Z,5.15
2023-01-17T17:34:01.318Z,3.95
2023-01-17T17:36:30.833Z,7.28
2023-01-17T17:38:59.638Z,6.88
2023-01-17T17:41:31.487Z,5.35
2023-01-17T17:44:02.241Z,8.30
2023-01-17T17:46:31.330Z,9.40
2023-01-17T17:49:00.184Z,9.43
2023-01-17T17:51:30.620Z,7.28
2023-01-17T17:54:01.640Z,5.10
2023-01-17T17:56:33.649Z,7.70
2023-01-17T17:59:03.256Z,5.85
2023-01-17T18:01:32.752Z,5.55
2023-01-17T18:04:03.653Z,8.60
2023-01-17T18:06:32.500Z,7.40
2023-01-17T18:09:01.306Z,6.90
2023-01-17T18:11:32.735Z,5.97
2023-01-17T18:14:03.563Z,11.48
2023-01-17T18:16:35.690Z,11.57
2023-01-17T18:19:05.660Z,19.00
2023-01-17T18:21:35.718Z,22.75
2023-01-17T18:24:07.566Z,8.13
2023-01-17T18:26:39.453Z,5.60
2023-01-17T18:29:10.709Z,8.43
2023-01-17T18:31:39.439Z,7.03
2023-01-17T18:34:10.250Z,7.18
2023-01-17T18:36:39.390Z,4.22
2023-01-17T18:39:14.657Z,4.35
2023-01-17T18:41:45.392Z,7.93
2023-01-17T18:44:15.015Z,5.70
2023-01-17T18:46:43.904Z,6.45
2023-01-17T18:49:13.721Z,6.57
2023-01-17T18:51:46.504Z,5.70
2023-01-17T18:54:15.509Z,5.05
2023-01-17T18:56:45.015Z,3.60
2023-01-17T18:59:14.455Z,8.65
2023-01-17T19:01:43.853Z,5.68
2023-01-17T19:04:14.264Z,6.85
2023-01-17T19:06:43.997Z,9.85
2023-01-17T19:09:14.132Z,6.60
2023-01-17T19:11:45.172Z,9.02
2023-01-17T19:14:15.067Z,8.25
2023-01-17T19:16:44.060Z,12.82
2023-01-17T19:19:15.131Z,10.73
2023-01-17T19:21:43.727Z,9.20
2023-01-17T19:24:14.336Z,5.90
2023-01-17T19:26:44.536Z,10.43
2023-01-17T19:29:13.431Z,6.55
2023-01-17T19:31:43.346Z,29.60
2023-01-17T19:34:14.028Z,16.35
2023-01-17T19:36:42.402Z,34.85
2023-01-17T19:39:11.873Z,19.75
2023-01-17T19:41:45.643Z,15.65
2023-01-17T19:44:15.193Z,13.25
2023-01-17T19:46:44.072Z,14.63
2023-01-17T19:49:24.718Z,13.20
2023-01-17T19:51:52.999Z,14.07
2023-01-17T19:54:21.994Z,11.25
2023-01-17T19:56:51.780Z,7.25
2023-01-17T19:59:20.501Z,8.40
2023-01-17T20:01:49.080Z,11.23
2023-01-17T20:04:18.861Z,10.70
2023-01-17T20:06:47.713Z,44.70
2023-01-17T20:09:16.089Z,38.88
2023-01-17T20:11:45.830Z,27.20
2023-01-17T20:14:16.792Z,20.05
2023-01-17T20:16:47.705Z,28.77
2023-01-17T20:19:16.192Z,28.30
2023-01-17T20:21:44.784Z,17.10
2023-01-17T20:24:13.695Z,11.95
2023-01-17T20:26:44.116Z,6.50
2023-01-17T20:29:16.903Z,6.55
2023-01-17T20:31:45.862Z,8.45
2023-01-17T20:34:19.027Z,8.50
2023-01-17T20:36:47.540Z,10.40
2023-01-17T20:39:16.646Z,7.38
2023-01-17T20:41:46.375Z,9.80
2023-01-17T20:44:17.076Z,11.30
2023-01-17T20:46:47.793Z,8.10
2023-01-17T20:49:19.361Z,14.90
2023-01-17T20:51:48.473Z,28.13
2023-01-17T20:54:18.587Z,58.47
2023-01-17T20:56:48.077Z,19.02
2023-01-17T20:59:19.662Z,13.10
2023-01-17T21:01:48.697Z,27.20
2023-01-17T21:04:20.147Z,12.30
2023-01-17T21:06:51.671Z,8.82
2023-01-17T21:09:21.429Z,7.90
2023-01-17T21:11:50.602Z,8.07
2023-01-17T21:14:21.904Z,7.93
2023-01-17T21:16:51.287Z,7.38
2023-01-17T21:19:20.512Z,7.07
2023-01-17T21:21:50.271Z,7.53
2023-01-17T21:24:20.324Z,8.20
2023-01-17T21:26:51.452Z,7.80
2023-01-17T21:29:21.018Z,8.82
2023-01-17T21:31:49.364Z,7.47
2023-01-17T21:34:17.811Z,10.55
2023-01-17T21:36:46.254Z,5.70
2023-01-17T21:39:17.104Z,8.45
2023-01-17T21:41:48.219Z,10.25
2023-01-17T21:44:19.835Z,7.20
2023-01-17T21:46:53.615Z,7.85
2023-01-17T21:49:24.152Z,10.05
2023-01-17T21:52:09.871Z,12.95
2023-01-17T21:54:55.869Z,6.72
2023-01-17T21:57:41.754Z,8.50
2023-01-17T22:00:14.652Z,11.30
2023-01-17T22:02:49.061Z,8.30
2023-01-17T22:05:18.564Z,11.00
2023-01-17T22:08:00.833Z,13.25
2023-01-17T22:10:29.259Z,11.15
2023-01-17T22:12:57.561Z,9.30
2023-01-17T22:15:25.801Z,15.98
2023-01-17T22:17:55.710Z,13.88
2023-01-17T22:20:24.053Z,16.60
2023-01-17T22:22:52.226Z,13.60
2023-01-17T22:25:21.150Z,11.38
2023-01-17T22:27:49.288Z,12.98
2023-01-17T22:30:19.618Z,10.52
2023-01-17T22:32:47.784Z,17.55
2023-01-17T22:35:17.705Z,13.48
2023-01-17T22:37:45.800Z,13.82
2023-01-17T22:40:14.480Z,15.07
2023-01-17T22:42:43.134Z,16.27
2023-01-17T22:45:12.229Z,11.90
2023-01-17T22:47:40.961Z,10.13
2023-01-17T22:50:10.745Z,17.17
2023-01-17T22:52:40.541Z,16.02
2023-01-17T22:55:09.915Z,12.20
2023-01-17T22:57:38.377Z,13.30
2023-01-17T23:00:14.688Z,15.50
2023-01-17T23:02:44.329Z,14.60
2023-01-17T23:05:13.448Z,16.80
2023-01-17T23:07:46.610Z,14.63
2023-01-17T23:10:37.082Z,10.98
2023-01-17T23:13:06.072Z,13.93
2023-01-17T23:15:55.976Z,12.40
2023-01-17T23:18:41.989Z,16.08
2023-01-17T23:21:10.315Z,11.75
2023-01-17T23:23:40.269Z,14.50
2023-01-17T23:26:08.988Z,10.57
2023-01-17T23:28:36.134Z,14.93
2023-01-17T23:31:06.572Z,18.30
2023-01-17T23:33:35.108Z,21.70
2023-01-17T23:36:03.486Z,17.60
2023-01-17T23:38:34.239Z,19.95
2023-01-17T23:41:27.427Z,15.20
2023-01-17T23:43:57.216Z,12.88
2023-01-17T23:46:26.835Z,16.08
2023-01-17T23:48:56.159Z,21.27
2023-01-17T23:51:24.434Z,15.55
2023-01-17T23:53:57.734Z,13.32
2023-01-17T23:56:27.685Z,14.07
2023-01-17T23:58:56.090Z,18.67
